sensor_id;sensor_type;location;lat;lon;timestamp;temperature;humidity
52381;DHT22;38310;52.796;6.942;2023-05-10T00:01:08;13.90;99.90
52381;DHT22;38310;52.796;6.942;2023-05-10T00:03:34;13.90;99.90
52381;DHT22;38310;52.796;6.942;2023-05-10T00:06:00;13.90;99.90
52381;DHT22;38310;52.796;6.942;2023-05-10T00:08:25;13.90;99.90
52381;DHT22;38310;52.796;6.942;2023-05-10T00:10:52;13.90;99.90
52381;DHT22;38310;52.796;6.942;2023-05-10T00:13:18;13.80;99.90
52381;DHT22;38310;52.796;6.942;2023-05-10T00:15:44;13.80;99.90
52381;DHT22;38310;52.796;6.942;2023-05-10T00:18:09;13.70;99.90
52381;DHT22;38310;52.796;6.942;2023-05-10T00:20:35;13.60;99.90
52381;DHT22;38310;52.796;6.942;2023-05-10T00:23:01;13.50;99.90
52381;DHT22;38310;52.796;6.942;2023-05-10T00:25:26;13.40;99.90
52381;DHT22;38310;52.796;6.942;2023-05-10T00:27:52;13.40;99.90
52381;DHT22;38310;52.796;6.942;2023-05-10T00:30:20;13.40;99.90
52381;DHT22;38310;52.796;6.942;2023-05-10T00:32:46;13.30;99.90
52381;DHT22;38310;52.796;6.942;2023-05-10T00:35:13;13.20;99.90
52381;DHT22;38310;52.796;6.942;2023-05-10T00:37:39;13.20;99.90
52381;DHT22;38310;52.796;6.942;2023-05-10T00:40:06;13.10;99.90
52381;DHT22;38310;52.796;6.942;2023-05-10T00:42:32;13.20;99.90
52381;DHT22;38310;52.796;6.942;2023-05-10T00:44:58;13.10;99.90
52381;DHT22;38310;52.796;6.942;2023-05-10T00:47:24;13.20;99.90
52381;DHT22;38310;52.796;6.942;2023-05-10T00:49:49;13.10;99.90
52381;DHT22;38310;52.796;6.942;2023-05-10T00:52:16;13.10;99.90
52381;DHT22;38310;52.796;6.942;2023-05-10T00:54:41;13.00;99.90
52381;DHT22;38310;52.796;6.942;2023-05-10T00:57:07;13.10;99.90
52381;DHT22;38310;52.796;6.942;2023-05-10T00:59:34;13.00;99.90
52381;DHT22;38310;52.796;6.942;2023-05-10T01:01:59;12.90;99.90
52381;DHT22;38310;52.796;6.942;2023-05-10T01:04:25;12.90;99.90
52381;DHT22;38310;52.796;6.942;2023-05-10T01:06:52;12.90;99.90
52381;DHT22;38310;52.796;6.942;2023-05-10T01:09:20;13.00;99.90
52381;DHT22;38310;52.796;6.942;2023-05-10T01:11:46;12.90;99.90
52381;DHT22;38310;52.796;6.942;2023-05-10T01:14:11;12.90;99.90
52381;DHT22;38310;52.796;6.942;2023-05-10T01:16:39;12.90;99.90
52381;DHT22;38310;52.796;6.942;2023-05-10T01:19:26;12.90;99.90
52381;DHT22;38310;52.796;6.942;2023-05-10T01:34:07;12.80;99.90
52381;DHT22;38310;52.796;6.942;2023-05-10T01:37:02;12.80;99.90
52381;DHT22;38310;52.796;6.942;2023-05-10T01:39:58;12.80;99.90
52381;DHT22;38310;52.796;6.942;2023-05-10T01:42:29;12.80;99.90
52381;DHT22;38310;52.796;6.942;2023-05-10T01:45:06;12.80;99.90
52381;DHT22;38310;52.796;6.942;2023-05-10T01:50:09;12.80;99.90
52381;DHT22;38310;52.796;6.942;2023-05-10T01:52:42;12.80;99.90
52381;DHT22;38310;52.796;6.942;2023-05-10T01:55:14;12.70;99.90
52381;DHT22;38310;52.796;6.942;2023-05-10T01:57:43;12.80;99.90
52381;DHT22;38310;52.796;6.942;2023-05-10T02:00:11;12.80;99.90
52381;DHT22;38310;52.796;6.942;2023-05-10T02:02:40;12.80;99.90
52381;DHT22;38310;52.796;6.942;2023-05-10T02:05:08;12.80;99.90
52381;DHT22;38310;52.796;6.942;2023-05-10T02:07:37;12.70;99.90
52381;DHT22;38310;52.796;6.942;2023-05-10T02:10:06;12.70;99.90
52381;DHT22;38310;52.796;6.942;2023-05-10T02:12:36;12.80;99.90
52381;DHT22;38310;52.796;6.942;2023-05-10T02:15:04;12.80;99.90
52381;DHT22;38310;52.796;6.942;2023-05-10T02:17:32;12.80;99.90
52381;DHT22;38310;52.796;6.942;2023-05-10T02:19:59;12.70;99.90
52381;DHT22;38310;52.796;6.942;2023-05-10T02:22:27;12.70;99.90
52381;DHT22;38310;52.796;6.942;2023-05-10T02:24:58;12.60;99.90
52381;DHT22;38310;52.796;6.942;2023-05-10T02:27:26;12.70;99.90
52381;DHT22;38310;52.796;6.942;2023-05-10T02:29:53;12.60;99.90
52381;DHT22;38310;52.796;6.942;2023-05-10T02:32:21;12.60;99.90
52381;DHT22;38310;52.796;6.942;2023-05-10T02:34:48;12.60;99.90
52381;DHT22;38310;52.796;6.942;2023-05-10T02:37:19;12.60;99.90
52381;DHT22;38310;52.796;6.942;2023-05-10T02:39:47;12.60;99.90
52381;DHT22;38310;52.796;6.942;2023-05-10T02:42:17;12.60;99.90
52381;DHT22;38310;52.796;6.942;2023-05-10T02:44:47;12.60;99.90
52381;DHT22;38310;52.796;6.942;2023-05-10T02:47:13;12.60;99.90
52381;DHT22;38310;52.796;6.942;2023-05-10T02:49:39;12.60;99.90
52381;DHT22;38310;52.796;6.942;2023-05-10T02:52:06;12.60;99.90
52381;DHT22;38310;52.796;6.942;2023-05-10T02:54:41;12.60;99.90
52381;DHT22;38310;52.796;6.942;2023-05-10T02:57:13;12.60;99.90
52381;DHT22;38310;52.796;6.942;2023-05-10T02:59:40;12.60;99.90
52381;DHT22;38310;52.796;6.942;2023-05-10T03:02:09;12.60;99.90
52381;DHT22;38310;52.796;6.942;2023-05-10T03:04:35;12.60;99.90
52381;DHT22;38310;52.796;6.942;2023-05-10T03:07:01;12.60;99.90
52381;DHT22;38310;52.796;6.942;2023-05-10T03:09:26;12.50;99.90
52381;DHT22;38310;52.796;6.942;2023-05-10T03:18:28;12.50;99.90
52381;DHT22;38310;52.796;6.942;2023-05-10T03:21:01;12.40;99.90
52381;DHT22;38310;52.796;6.942;2023-05-10T03:23:35;12.40;99.90
52381;DHT22;38310;52.796;6.942;2023-05-10T03:26:06;12.40;99.90
52381;DHT22;38310;52.796;6.942;2023-05-10T03:28:34;12.40;99.90
52381;DHT22;38310;52.796;6.942;2023-05-10T03:31:02;12.40;99.90
52381;DHT22;38310;52.796;6.942;2023-05-10T03:33:28;12.40;99.90
52381;DHT22;38310;52.796;6.942;2023-05-10T03:35:54;12.40;99.90
52381;DHT22;38310;52.796;6.942;2023-05-10T03:38:20;12.40;99.90
52381;DHT22;38310;52.796;6.942;2023-05-10T03:40:46;12.40;99.90
52381;DHT22;38310;52.796;6.942;2023-05-10T03:43:11;12.30;99.90
52381;DHT22;38310;52.796;6.942;2023-05-10T03:45:37;12.30;99.90
52381;DHT22;38310;52.796;6.942;2023-05-10T03:48:03;12.40;99.90
52381;DHT22;38310;52.796;6.942;2023-05-10T03:50:29;12.30;99.90
52381;DHT22;38310;52.796;6.942;2023-05-10T03:52:55;12.30;99.90
52381;DHT22;38310;52.796;6.942;2023-05-10T03:55:21;12.30;99.90
52381;DHT22;38310;52.796;6.942;2023-05-10T03:57:47;12.30;99.90
52381;DHT22;38310;52.796;6.942;2023-05-10T04:00:15;12.30;99.90
52381;DHT22;38310;52.796;6.942;2023-05-10T04:02:41;12.30;99.90
52381;DHT22;38310;52.796;6.942;2023-05-10T04:05:07;12.40;99.90
52381;DHT22;38310;52.796;6.942;2023-05-10T04:07:33;12.30;99.90
52381;DHT22;38310;52.796;6.942;2023-05-10T04:09:58;12.30;99.90
52381;DHT22;38310;52.796;6.942;2023-05-10T04:12:24;12.40;99.90
52381;DHT22;38310;52.796;6.942;2023-05-10T04:14:50;12.40;99.90
52381;DHT22;38310;52.796;6.942;2023-05-10T04:17:16;12.30;99.90
52381;DHT22;38310;52.796;6.942;2023-05-10T04:19:42;12.30;99.90
52381;DHT22;38310;52.796;6.942;2023-05-10T04:22:07;12.30;99.90
52381;DHT22;38310;52.796;6.942;2023-05-10T04:24:33;12.30;99.90
52381;DHT22;38310;52.796;6.942;2023-05-10T04:26:59;12.30;99.90
52381;DHT22;38310;52.796;6.942;2023-05-10T04:29:25;12.30;99.90
52381;DHT22;38310;52.796;6.942;2023-05-10T04:31:51;12.30;99.90
52381;DHT22;38310;52.796;6.942;2023-05-10T04:34:16;12.30;99.90
52381;DHT22;38310;52.796;6.942;2023-05-10T04:36:42;12.30;99.90
52381;DHT22;38310;52.796;6.942;2023-05-10T04:39:08;12.30;99.90
52381;DHT22;38310;52.796;6.942;2023-05-10T04:41:35;12.30;99.90
52381;DHT22;38310;52.796;6.942;2023-05-10T04:44:00;12.30;99.90
52381;DHT22;38310;52.796;6.942;2023-05-10T04:46:26;12.40;99.90
52381;DHT22;38310;52.796;6.942;2023-05-10T04:48:52;12.30;99.90
52381;DHT22;38310;52.796;6.942;2023-05-10T04:51:18;11.60;99.90
52381;DHT22;38310;52.796;6.942;2023-05-10T04:53:43;12.30;99.90
52381;DHT22;38310;52.796;6.942;2023-05-10T04:56:09;12.30;99.90
52381;DHT22;38310;52.796;6.942;2023-05-10T04:58:35;12.30;99.90
52381;DHT22;38310;52.796;6.942;2023-05-10T05:01:08;12.30;99.90
52381;DHT22;38310;52.796;6.942;2023-05-10T05:03:34;12.30;99.90
52381;DHT22;38310;52.796;6.942;2023-05-10T05:06:00;12.30;99.90
52381;DHT22;38310;52.796;6.942;2023-05-10T05:08:26;12.40;99.90
52381;DHT22;38310;52.796;6.942;2023-05-10T05:10:51;12.40;99.90
52381;DHT22;38310;52.796;6.942;2023-05-10T05:13:17;12.40;99.90
52381;DHT22;38310;52.796;6.942;2023-05-10T05:15:43;12.40;99.90
52381;DHT22;38310;52.796;6.942;2023-05-10T05:18:08;12.40;99.90
52381;DHT22;38310;52.796;6.942;2023-05-10T05:20:34;12.40;99.90
52381;DHT22;38310;52.796;6.942;2023-05-10T05:23:00;12.30;99.90
52381;DHT22;38310;52.796;6.942;2023-05-10T05:25:26;12.40;99.90
52381;DHT22;38310;52.796;6.942;2023-05-10T05:27:52;12.40;99.90
52381;DHT22;38310;52.796;6.942;2023-05-10T05:30:17;12.40;99.90
52381;DHT22;38310;52.796;6.942;2023-05-10T05:32:43;12.30;99.90
52381;DHT22;38310;52.796;6.942;2023-05-10T05:35:09;12.30;99.90
52381;DHT22;38310;52.796;6.942;2023-05-10T05:37:35;12.40;99.90
52381;DHT22;38310;52.796;6.942;2023-05-10T05:40:01;12.40;99.90
52381;DHT22;38310;52.796;6.942;2023-05-10T05:42:27;12.40;99.90
52381;DHT22;38310;52.796;6.942;2023-05-10T05:44:52;12.40;99.90
52381;DHT22;38310;52.796;6.942;2023-05-10T05:47:18;12.40;99.90
52381;DHT22;38310;52.796;6.942;2023-05-10T05:49:44;12.30;99.90
52381;DHT22;38310;52.796;6.942;2023-05-10T05:52:11;12.30;99.90
52381;DHT22;38310;52.796;6.942;2023-05-10T05:54:37;12.20;99.90
52381;DHT22;38310;52.796;6.942;2023-05-10T05:57:02;12.30;99.90
52381;DHT22;38310;52.796;6.942;2023-05-10T05:59:28;12.30;99.90
52381;DHT22;38310;52.796;6.942;2023-05-10T06:01:54;12.30;99.90
52381;DHT22;38310;52.796;6.942;2023-05-10T06:04:20;12.30;99.90
52381;DHT22;38310;52.796;6.942;2023-05-10T06:06:46;12.30;99.90
52381;DHT22;38310;52.796;6.942;2023-05-10T06:09:11;12.30;99.90
52381;DHT22;38310;52.796;6.942;2023-05-10T06:11:38;12.30;99.90
52381;DHT22;38310;52.796;6.942;2023-05-10T06:14:04;12.30;99.90
52381;DHT22;38310;52.796;6.942;2023-05-10T06:16:32;12.40;99.90
52381;DHT22;38310;52.796;6.942;2023-05-10T06:18:58;12.40;99.90
52381;DHT22;38310;52.796;6.942;2023-05-10T06:21:23;12.40;99.90
52381;DHT22;38310;52.796;6.942;2023-05-10T06:23:49;12.40;99.90
52381;DHT22;38310;52.796;6.942;2023-05-10T06:26:15;12.40;99.90
52381;DHT22;38310;52.796;6.942;2023-05-10T06:28:41;12.50;99.90
52381;DHT22;38310;52.796;6.942;2023-05-10T06:31:07;12.50;99.90
52381;DHT22;38310;52.796;6.942;2023-05-10T06:33:33;12.50;99.90
52381;DHT22;38310;52.796;6.942;2023-05-10T06:35:59;12.50;99.90
52381;DHT22;38310;52.796;6.942;2023-05-10T06:38:25;12.50;99.90
52381;DHT22;38310;52.796;6.942;2023-05-10T06:40:50;12.60;99.90
52381;DHT22;38310;52.796;6.942;2023-05-10T06:43:16;12.60;99.90
52381;DHT22;38310;52.796;6.942;2023-05-10T06:45:42;12.50;99.90
52381;DHT22;38310;52.796;6.942;2023-05-10T06:48:08;12.60;99.90
52381;DHT22;38310;52.796;6.942;2023-05-10T06:50:34;12.60;99.90
52381;DHT22;38310;52.796;6.942;2023-05-10T06:53:00;12.60;99.90
52381;DHT22;38310;52.796;6.942;2023-05-10T06:55:27;12.70;99.90
52381;DHT22;38310;52.796;6.942;2023-05-10T06:57:53;12.60;99.90
52381;DHT22;38310;52.796;6.942;2023-05-10T07:00:19;12.60;99.90
52381;DHT22;38310;52.796;6.942;2023-05-10T07:02:46;12.70;99.90
52381;DHT22;38310;52.796;6.942;2023-05-10T07:05:12;12.70;99.90
52381;DHT22;38310;52.796;6.942;2023-05-10T07:07:38;12.70;99.90
52381;DHT22;38310;52.796;6.942;2023-05-10T07:10:04;12.70;99.90
52381;DHT22;38310;52.796;6.942;2023-05-10T07:12:30;12.80;99.90
52381;DHT22;38310;52.796;6.942;2023-05-10T07:14:55;12.80;99.90
52381;DHT22;38310;52.796;6.942;2023-05-10T07:17:21;12.80;99.90
52381;DHT22;38310;52.796;6.942;2023-05-10T07:19:47;12.90;99.90
52381;DHT22;38310;52.796;6.942;2023-05-10T07:22:12;12.90;99.90
52381;DHT22;38310;52.796;6.942;2023-05-10T07:24:38;13.00;99.90
52381;DHT22;38310;52.796;6.942;2023-05-10T07:27:04;13.00;99.90
52381;DHT22;38310;52.796;6.942;2023-05-10T07:29:29;13.00;99.90
52381;DHT22;38310;52.796;6.942;2023-05-10T07:31:56;12.90;99.90
52381;DHT22;38310;52.796;6.942;2023-05-10T07:34:22;13.00;99.90
52381;DHT22;38310;52.796;6.942;2023-05-10T07:36:47;13.00;99.90
52381;DHT22;38310;52.796;6.942;2023-05-10T07:39:13;13.00;99.90
52381;DHT22;38310;52.796;6.942;2023-05-10T07:41:39;13.10;99.90
52381;DHT22;38310;52.796;6.942;2023-05-10T07:44:05;13.20;99.90
52381;DHT22;38310;52.796;6.942;2023-05-10T07:46:31;13.20;99.90
52381;DHT22;38310;52.796;6.942;2023-05-10T07:48:57;13.30;99.90
52381;DHT22;38310;52.796;6.942;2023-05-10T07:51:23;13.30;99.90
52381;DHT22;38310;52.796;6.942;2023-05-10T07:53:49;13.30;99.90
52381;DHT22;38310;52.796;6.942;2023-05-10T07:56:28;13.40;99.90
52381;DHT22;38310;52.796;6.942;2023-05-10T07:59:01;13.40;99.90
52381;DHT22;38310;52.796;6.942;2023-05-10T08:01:31;13.50;99.90
52381;DHT22;38310;52.796;6.942;2023-05-10T08:04:00;13.50;99.90
52381;DHT22;38310;52.796;6.942;2023-05-10T08:06:27;13.50;99.90
52381;DHT22;38310;52.796;6.942;2023-05-10T08:08:55;13.50;99.90
52381;DHT22;38310;52.796;6.942;2023-05-10T08:11:21;13.60;99.90
52381;DHT22;38310;52.796;6.942;2023-05-10T08:13:48;13.60;99.90
52381;DHT22;38310;52.796;6.942;2023-05-10T08:16:14;14.50;99.90
52381;DHT22;38310;52.796;6.942;2023-05-10T08:18:41;13.60;99.90
52381;DHT22;38310;52.796;6.942;2023-05-10T08:21:07;13.60;99.90
52381;DHT22;38310;52.796;6.942;2023-05-10T08:23:33;13.60;99.90
52381;DHT22;38310;52.796;6.942;2023-05-10T08:25:59;13.40;99.90
52381;DHT22;38310;52.796;6.942;2023-05-10T08:28:25;13.50;99.90
52381;DHT22;38310;52.796;6.942;2023-05-10T08:30:51;13.40;99.90
52381;DHT22;38310;52.796;6.942;2023-05-10T08:33:18;13.50;99.90
52381;DHT22;38310;52.796;6.942;2023-05-10T08:35:44;13.50;99.90
52381;DHT22;38310;52.796;6.942;2023-05-10T08:38:10;13.50;99.90
52381;DHT22;38310;52.796;6.942;2023-05-10T08:40:37;13.60;99.90
52381;DHT22;38310;52.796;6.942;2023-05-10T08:43:09;13.70;99.90
52381;DHT22;38310;52.796;6.942;2023-05-10T08:45:41;13.60;99.90
52381;DHT22;38310;52.796;6.942;2023-05-10T08:48:10;13.70;99.90
52381;DHT22;38310;52.796;6.942;2023-05-10T08:50:41;13.60;99.90
52381;DHT22;38310;52.796;6.942;2023-05-10T08:53:11;13.70;99.90
52381;DHT22;38310;52.796;6.942;2023-05-10T08:55:39;13.60;99.90
52381;DHT22;38310;52.796;6.942;2023-05-10T08:58:06;13.60;99.90
52381;DHT22;38310;52.796;6.942;2023-05-10T09:00:32;13.60;99.90
52381;DHT22;38310;52.796;6.942;2023-05-10T09:02:59;13.60;99.90
52381;DHT22;38310;52.796;6.942;2023-05-10T09:05:25;13.70;99.90
52381;DHT22;38310;52.796;6.942;2023-05-10T09:07:51;13.80;99.90
52381;DHT22;38310;52.796;6.942;2023-05-10T09:10:17;14.10;99.90
52381;DHT22;38310;52.796;6.942;2023-05-10T09:12:44;14.20;99.90
52381;DHT22;38310;52.796;6.942;2023-05-10T09:15:11;14.20;99.90
52381;DHT22;38310;52.796;6.942;2023-05-10T09:17:39;14.30;99.90
52381;DHT22;38310;52.796;6.942;2023-05-10T09:20:06;14.30;99.90
52381;DHT22;38310;52.796;6.942;2023-05-10T09:22:33;14.30;99.90
52381;DHT22;38310;52.796;6.942;2023-05-10T09:27:34;14.90;99.90
52381;DHT22;38310;52.796;6.942;2023-05-10T09:30:00;14.20;99.90
52381;DHT22;38310;52.796;6.942;2023-05-10T09:35:11;14.20;99.90
52381;DHT22;38310;52.796;6.942;2023-05-10T09:37:39;14.00;99.90
52381;DHT22;38310;52.796;6.942;2023-05-10T09:40:07;14.00;99.90
52381;DHT22;38310;52.796;6.942;2023-05-10T09:42:34;14.00;99.90
52381;DHT22;38310;52.796;6.942;2023-05-10T09:45:07;14.00;99.90
52381;DHT22;38310;52.796;6.942;2023-05-10T09:47:36;14.00;99.90
52381;DHT22;38310;52.796;6.942;2023-05-10T09:50:05;14.00;99.90
52381;DHT22;38310;52.796;6.942;2023-05-10T09:55:11;14.10;99.90
52381;DHT22;38310;52.796;6.942;2023-05-10T09:57:37;14.20;99.90
52381;DHT22;38310;52.796;6.942;2023-05-10T10:00:03;14.20;99.90
52381;DHT22;38310;52.796;6.942;2023-05-10T10:02:31;14.40;99.90
52381;DHT22;38310;52.796;6.942;2023-05-10T10:04:57;14.50;99.90
52381;DHT22;38310;52.796;6.942;2023-05-10T10:07:24;14.80;99.90
52381;DHT22;38310;52.796;6.942;2023-05-10T10:09:53;14.90;99.90
52381;DHT22;38310;52.796;6.942;2023-05-10T10:12:19;15.20;99.90
52381;DHT22;38310;52.796;6.942;2023-05-10T10:14:46;15.20;99.90
52381;DHT22;38310;52.796;6.942;2023-05-10T10:17:13;15.30;99.90
52381;DHT22;38310;52.796;6.942;2023-05-10T10:19:40;15.30;99.90
52381;DHT22;38310;52.796;6.942;2023-05-10T10:22:06;15.30;99.90
52381;DHT22;38310;52.796;6.942;2023-05-10T10:24:32;15.30;99.90
52381;DHT22;38310;52.796;6.942;2023-05-10T10:27:26;15.10;99.90
52381;DHT22;38310;52.796;6.942;2023-05-10T10:35:52;15.00;99.90
52381;DHT22;38310;52.796;6.942;2023-05-10T10:38:19;15.10;99.90
52381;DHT22;38310;52.796;6.942;2023-05-10T10:40:44;15.00;99.90
52381;DHT22;38310;52.796;6.942;2023-05-10T10:43:26;15.00;99.90
52381;DHT22;38310;52.796;6.942;2023-05-10T10:46:12;15.00;99.90
52381;DHT22;38310;52.796;6.942;2023-05-10T10:48:39;15.10;99.90
52381;DHT22;38310;52.796;6.942;2023-05-10T10:51:05;15.10;99.90
52381;DHT22;38310;52.796;6.942;2023-05-10T10:53:31;15.10;99.90
52381;DHT22;38310;52.796;6.942;2023-05-10T10:56:09;15.20;99.90
52381;DHT22;38310;52.796;6.942;2023-05-10T10:58:37;15.30;99.90
52381;DHT22;38310;52.796;6.942;2023-05-10T11:01:14;15.30;99.90
52381;DHT22;38310;52.796;6.942;2023-05-10T11:03:41;15.60;99.90
52381;DHT22;38310;52.796;6.942;2023-05-10T11:06:32;15.70;99.90
52381;DHT22;38310;52.796;6.942;2023-05-10T11:08:58;15.80;99.90
52381;DHT22;38310;52.796;6.942;2023-05-10T11:11:23;15.80;99.90
52381;DHT22;38310;52.796;6.942;2023-05-10T11:13:50;15.90;99.90
52381;DHT22;38310;52.796;6.942;2023-05-10T11:16:24;15.60;99.90
52381;DHT22;38310;52.796;6.942;2023-05-10T11:21:48;15.50;99.90
52381;DHT22;38310;52.796;6.942;2023-05-10T11:24:16;15.40;99.90
52381;DHT22;38310;52.796;6.942;2023-05-10T11:26:43;15.40;99.90
52381;DHT22;38310;52.796;6.942;2023-05-10T11:29:08;15.20;99.90
52381;DHT22;38310;52.796;6.942;2023-05-10T11:31:34;15.40;99.90
52381;DHT22;38310;52.796;6.942;2023-05-10T11:34:00;15.40;99.90
52381;DHT22;38310;52.796;6.942;2023-05-10T11:36:29;15.40;99.90
52381;DHT22;38310;52.796;6.942;2023-05-10T11:38:56;15.50;99.90
52381;DHT22;38310;52.796;6.942;2023-05-10T11:41:23;15.50;99.90
52381;DHT22;38310;52.796;6.942;2023-05-10T11:43:51;15.50;99.90
52381;DHT22;38310;52.796;6.942;2023-05-10T11:46:19;15.60;99.90
52381;DHT22;38310;52.796;6.942;2023-05-10T11:48:48;15.60;99.90
52381;DHT22;38310;52.796;6.942;2023-05-10T11:51:14;15.70;99.90
52381;DHT22;38310;52.796;6.942;2023-05-10T11:53:41;15.60;99.90
52381;DHT22;38310;52.796;6.942;2023-05-10T11:56:08;15.80;99.90
52381;DHT22;38310;52.796;6.942;2023-05-10T11:58:37;15.90;99.90
52381;DHT22;38310;52.796;6.942;2023-05-10T12:01:04;15.90;99.90
52381;DHT22;38310;52.796;6.942;2023-05-10T12:03:31;16.00;99.90
52381;DHT22;38310;52.796;6.942;2023-05-10T12:05:57;16.00;99.90
52381;DHT22;38310;52.796;6.942;2023-05-10T12:08:25;16.10;99.90
52381;DHT22;38310;52.796;6.942;2023-05-10T12:11:03;16.00;99.90
52381;DHT22;38310;52.796;6.942;2023-05-10T12:13:29;16.00;99.90
52381;DHT22;38310;52.796;6.942;2023-05-10T12:15:57;16.10;99.90
52381;DHT22;38310;52.796;6.942;2023-05-10T12:18:24;16.20;99.90
52381;DHT22;38310;52.796;6.942;2023-05-10T12:20:53;16.20;99.90
52381;DHT22;38310;52.796;6.942;2023-05-10T12:23:20;16.30;99.90
52381;DHT22;38310;52.796;6.942;2023-05-10T12:25:46;16.40;99.90
52381;DHT22;38310;52.796;6.942;2023-05-10T12:28:12;16.50;99.90
52381;DHT22;38310;52.796;6.942;2023-05-10T12:30:38;16.50;99.90
52381;DHT22;38310;52.796;6.942;2023-05-10T12:33:12;16.40;99.90
52381;DHT22;38310;52.796;6.942;2023-05-10T12:35:47;16.40;99.90
52381;DHT22;38310;52.796;6.942;2023-05-10T12:38:32;16.30;99.90
52381;DHT22;38310;52.796;6.942;2023-05-10T12:41:00;16.30;99.90
52381;DHT22;38310;52.796;6.942;2023-05-10T12:43:26;16.30;99.90
52381;DHT22;38310;52.796;6.942;2023-05-10T12:45:53;16.20;99.90
52381;DHT22;38310;52.796;6.942;2023-05-10T12:48:19;16.10;99.90
52381;DHT22;38310;52.796;6.942;2023-05-10T12:50:45;16.10;99.90
52381;DHT22;38310;52.796;6.942;2023-05-10T12:53:11;15.90;99.90
52381;DHT22;38310;52.796;6.942;2023-05-10T12:55:38;16.00;99.90
52381;DHT22;38310;52.796;6.942;2023-05-10T12:58:05;16.10;99.90
52381;DHT22;38310;52.796;6.942;2023-05-10T13:00:30;16.10;99.90
52381;DHT22;38310;52.796;6.942;2023-05-10T13:02:56;16.20;99.90
52381;DHT22;38310;52.796;6.942;2023-05-10T13:05:22;16.20;99.90
52381;DHT22;38310;52.796;6.942;2023-05-10T13:07:47;16.30;99.90
52381;DHT22;38310;52.796;6.942;2023-05-10T13:10:14;16.30;99.90
52381;DHT22;38310;52.796;6.942;2023-05-10T13:12:40;16.30;99.90
52381;DHT22;38310;52.796;6.942;2023-05-10T13:15:06;16.40;99.90
52381;DHT22;38310;52.796;6.942;2023-05-10T13:17:32;16.40;99.90
52381;DHT22;38310;52.796;6.942;2023-05-10T13:19:59;16.40;99.90
52381;DHT22;38310;52.796;6.942;2023-05-10T13:22:25;16.50;99.90
52381;DHT22;38310;52.796;6.942;2023-05-10T13:24:50;16.50;99.90
52381;DHT22;38310;52.796;6.942;2023-05-10T13:27:16;16.50;99.90
52381;DHT22;38310;52.796;6.942;2023-05-10T13:29:42;16.60;99.90
52381;DHT22;38310;52.796;6.942;2023-05-10T13:32:08;16.50;99.90
52381;DHT22;38310;52.796;6.942;2023-05-10T13:34:33;16.50;99.90
52381;DHT22;38310;52.796;6.942;2023-05-10T13:37:01;16.50;99.90
52381;DHT22;38310;52.796;6.942;2023-05-10T13:39:27;16.70;99.90
52381;DHT22;38310;52.796;6.942;2023-05-10T13:41:53;16.60;99.90
52381;DHT22;38310;52.796;6.942;2023-05-10T13:44:20;16.70;99.90
52381;DHT22;38310;52.796;6.942;2023-05-10T13:46:46;16.80;99.90
52381;DHT22;38310;52.796;6.942;2023-05-10T13:49:11;16.80;99.90
52381;DHT22;38310;52.796;6.942;2023-05-10T13:51:37;16.70;99.90
52381;DHT22;38310;52.796;6.942;2023-05-10T13:54:03;16.70;99.90
52381;DHT22;38310;52.796;6.942;2023-05-10T13:56:29;16.70;99.90
52381;DHT22;38310;52.796;6.942;2023-05-10T13:58:56;16.70;99.90
52381;DHT22;38310;52.796;6.942;2023-05-10T14:01:22;16.60;99.90
52381;DHT22;38310;52.796;6.942;2023-05-10T14:03:51;16.70;99.90
52381;DHT22;38310;52.796;6.942;2023-05-10T14:06:17;16.90;99.90
52381;DHT22;38310;52.796;6.942;2023-05-10T14:08:43;16.90;99.90
52381;DHT22;38310;52.796;6.942;2023-05-10T14:11:08;17.10;99.90
52381;DHT22;38310;52.796;6.942;2023-05-10T14:13:34;17.10;99.90
52381;DHT22;38310;52.796;6.942;2023-05-10T14:16:00;17.20;99.90
52381;DHT22;38310;52.796;6.942;2023-05-10T14:18:27;17.20;99.90
52381;DHT22;38310;52.796;6.942;2023-05-10T14:20:53;17.10;99.90
52381;DHT22;38310;52.796;6.942;2023-05-10T14:23:19;16.90;99.90
52381;DHT22;38310;52.796;6.942;2023-05-10T14:25:50;17.00;99.90
52381;DHT22;38310;52.796;6.942;2023-05-10T14:28:16;16.90;99.90
52381;DHT22;38310;52.796;6.942;2023-05-10T14:30:43;16.80;99.90
52381;DHT22;38310;52.796;6.942;2023-05-10T14:33:09;16.80;99.90
52381;DHT22;38310;52.796;6.942;2023-05-10T14:35:35;16.80;99.90
52381;DHT22;38310;52.796;6.942;2023-05-10T14:38:02;16.70;99.90
52381;DHT22;38310;52.796;6.942;2023-05-10T14:40:29;16.70;99.90
52381;DHT22;38310;52.796;6.942;2023-05-10T14:42:55;16.70;99.90
52381;DHT22;38310;52.796;6.942;2023-05-10T14:45:21;16.70;99.90
52381;DHT22;38310;52.796;6.942;2023-05-10T14:47:48;16.90;99.90
52381;DHT22;38310;52.796;6.942;2023-05-10T14:50:15;16.90;99.90
52381;DHT22;38310;52.796;6.942;2023-05-10T14:52:42;16.90;99.90
52381;DHT22;38310;52.796;6.942;2023-05-10T14:55:08;17.00;99.90
52381;DHT22;38310;52.796;6.942;2023-05-10T14:57:35;17.00;99.90
52381;DHT22;38310;52.796;6.942;2023-05-10T15:00:03;17.00;99.90
52381;DHT22;38310;52.796;6.942;2023-05-10T15:02:30;17.10;99.90
52381;DHT22;38310;52.796;6.942;2023-05-10T15:04:56;17.10;99.90
52381;DHT22;38310;52.796;6.942;2023-05-10T15:07:23;17.30;99.90
52381;DHT22;38310;52.796;6.942;2023-05-10T15:09:49;17.30;99.90
52381;DHT22;38310;52.796;6.942;2023-05-10T15:12:16;17.20;99.90
52381;DHT22;38310;52.796;6.942;2023-05-10T15:14:41;17.30;99.90
52381;DHT22;38310;52.796;6.942;2023-05-10T15:17:07;17.10;99.90
52381;DHT22;38310;52.796;6.942;2023-05-10T15:19:33;17.00;99.90
52381;DHT22;38310;52.796;6.942;2023-05-10T15:21:59;17.00;99.90
52381;DHT22;38310;52.796;6.942;2023-05-10T15:24:25;17.00;99.90
52381;DHT22;38310;52.796;6.942;2023-05-10T15:26:51;17.10;99.90
52381;DHT22;38310;52.796;6.942;2023-05-10T15:29:19;16.90;99.90
52381;DHT22;38310;52.796;6.942;2023-05-10T15:31:48;17.00;99.90
52381;DHT22;38310;52.796;6.942;2023-05-10T15:34:15;16.90;99.90
52381;DHT22;38310;52.796;6.942;2023-05-10T15:36:41;16.60;99.90
52381;DHT22;38310;52.796;6.942;2023-05-10T15:39:07;16.70;99.90
52381;DHT22;38310;52.796;6.942;2023-05-10T15:41:32;16.60;99.90
52381;DHT22;38310;52.796;6.942;2023-05-10T15:43:58;16.70;99.90
52381;DHT22;38310;52.796;6.942;2023-05-10T15:46:28;16.50;99.90
52381;DHT22;38310;52.796;6.942;2023-05-10T15:48:54;16.40;99.90
52381;DHT22;38310;52.796;6.942;2023-05-10T15:51:21;16.30;99.90
52381;DHT22;38310;52.796;6.942;2023-05-10T15:53:47;16.40;99.90
52381;DHT22;38310;52.796;6.942;2023-05-10T15:56:12;16.40;99.90
52381;DHT22;38310;52.796;6.942;2023-05-10T15:58:40;16.40;99.90
52381;DHT22;38310;52.796;6.942;2023-05-10T16:01:06;16.40;99.90
52381;DHT22;38310;52.796;6.942;2023-05-10T16:03:32;16.50;99.90
52381;DHT22;38310;52.796;6.942;2023-05-10T16:05:59;16.40;99.90
52381;DHT22;38310;52.796;6.942;2023-05-10T16:08:26;16.40;99.90